createdAt,value
2023-02-12T00:01:08.881Z,43.53
2023-02-12T00:03:36.027Z,42.20
2023-02-12T00:06:02.709Z,44.20
2023-02-12T00:08:29.425Z,46.40
2023-02-12T00:10:56.595Z,45.78
2023-02-12T00:13:23.901Z,55.53
2023-02-12T00:15:50.677Z,63.95
2023-02-12T00:18:17.264Z,63.55
2023-02-12T00:20:43.792Z,62.65
2023-02-12T00:23:10.721Z,58.92
2023-02-12T00:25:41.191Z,57.08
2023-02-12T00:28:07.960Z,64.93
2023-02-12T00:30:35.418Z,62.35
2023-02-12T00:33:02.087Z,60.95
2023-02-12T00:35:28.798Z,61.90
2023-02-12T00:37:55.584Z,57.60
2023-02-12T00:40:22.184Z,61.55
2023-02-12T00:42:49.132Z,60.95
2023-02-12T00:45:17.285Z,50.83
2023-02-12T00:47:43.890Z,53.85
2023-02-12T00:50:10.894Z,56.55
2023-02-12T00:52:37.459Z,59.55
2023-02-12T00:55:04.793Z,59.08
2023-02-12T00:57:33.277Z,62.00
2023-02-12T01:00:00.144Z,60.30
2023-02-12T01:02:26.937Z,53.30
2023-02-12T01:04:53.583Z,53.92
2023-02-12T01:07:23.577Z,56.97
2023-02-12T01:09:50.152Z,48.35
2023-02-12T01:12:16.780Z,51.53
2023-02-12T01:14:43.421Z,51.65
2023-02-12T01:17:10.093Z,50.35
2023-02-12T01:19:36.703Z,54.33
2023-02-12T01:22:03.451Z,52.25
2023-02-12T01:24:30.298Z,51.53
2023-02-12T01:26:58.431Z,51.13
2023-02-12T01:29:25.074Z,54.42
2023-02-12T01:31:52.236Z,60.35
2023-02-12T01:34:19.020Z,62.40
2023-02-12T01:36:45.685Z,59.88
2023-02-12T01:39:12.585Z,57.42
2023-02-12T01:41:43.560Z,54.10
2023-02-12T01:44:22.123Z,55.85
2023-02-12T01:46:51.191Z,55.38
2023-02-12T01:49:25.659Z,53.83
2023-02-12T01:51:59.629Z,58.75
2023-02-12T01:54:27.020Z,59.38
2023-02-12T01:56:54.037Z,53.42
2023-02-12T01:59:21.149Z,53.63
2023-02-12T02:01:47.962Z,58.13
2023-02-12T02:04:20.041Z,53.47
2023-02-12T02:06:59.758Z,54.17
2023-02-12T02:09:27.347Z,55.47
2023-02-12T02:12:14.014Z,54.10
2023-02-12T02:14:41.230Z,54.92
2023-02-12T02:17:21.125Z,52.65
2023-02-12T02:20:18.801Z,58.30
2023-02-12T02:22:57.190Z,55.50
2023-02-12T02:25:58.033Z,58.20
2023-02-12T02:28:30.804Z,54.78
2023-02-12T02:31:05.158Z,56.60
2023-02-12T02:33:50.084Z,51.30
2023-02-12T02:37:02.088Z,62.55
2023-02-12T02:39:42.200Z,59.25
2023-02-12T02:42:14.509Z,56.72
2023-02-12T02:44:49.087Z,56.72
2023-02-12T02:47:17.516Z,58.92
2023-02-12T02:49:56.255Z,57.17
2023-02-12T02:52:29.110Z,54.42
2023-02-12T02:55:01.013Z,51.13
2023-02-12T02:57:31.065Z,52.80
2023-02-12T03:00:07.993Z,57.63
2023-02-12T03:02:37.717Z,56.75
2023-02-12T03:05:17.436Z,49.58
2023-02-12T03:07:53.882Z,54.90
2023-02-12T03:10:32.452Z,50.85
2023-02-12T03:13:07.206Z,52.13
2023-02-12T03:16:03.142Z,57.03
2023-02-12T03:18:36.798Z,48.45
2023-02-12T03:21:08.285Z,59.80
2023-02-12T03:23:40.491Z,57.30
2023-02-12T03:26:15.844Z,50.25
2023-02-12T03:28:42.483Z,54.30
2023-02-12T03:31:21.710Z,55.92
2023-02-12T03:34:00.402Z,50.58
2023-02-12T03:36:52.514Z,53.03
2023-02-12T03:39:47.115Z,54.63
2023-02-12T03:42:18.271Z,50.40
2023-02-12T03:45:17.226Z,57.53
2023-02-12T03:47:48.094Z,53.00
2023-02-12T03:50:44.546Z,51.08
2023-02-12T03:53:11.461Z,55.63
2023-02-12T03:55:40.895Z,50.03
2023-02-12T03:58:09.523Z,59.77
2023-02-12T04:00:38.855Z,51.90
2023-02-12T04:03:06.289Z,53.47
2023-02-12T04:05:33.017Z,49.65
2023-02-12T04:08:00.774Z,54.35
2023-02-12T04:10:42.387Z,47.92
2023-02-12T04:13:21.777Z,48.42
2023-02-12T04:16:30.143Z,53.15
2023-02-12T04:18:57.174Z,53.05
2023-02-12T04:21:37.988Z,54.50
2023-02-12T04:24:17.451Z,53.55
2023-02-12T04:26:59.255Z,55.43
2023-02-12T04:29:32.920Z,51.85
2023-02-12T04:32:06.780Z,50.88
2023-02-12T04:34:46.258Z,55.90
2023-02-12T04:37:18.217Z,54.20
2023-02-12T04:39:45.349Z,55.30
2023-02-12T04:42:12.119Z,52.55
2023-02-12T04:44:40.639Z,56.55
2023-02-12T04:47:07.554Z,51.03
2023-02-12T04:49:34.146Z,50.55
2023-02-12T04:52:00.782Z,57.20
2023-02-12T04:54:27.435Z,54.63
2023-02-12T04:56:54.210Z,54.17
2023-02-12T04:59:21.062Z,54.40
2023-02-12T05:01:47.834Z,58.75
2023-02-12T05:04:16.133Z,57.28
2023-02-12T05:06:44.039Z,54.92
2023-02-12T05:09:14.841Z,56.95
2023-02-12T05:11:41.576Z,58.08
2023-02-12T05:14:08.216Z,53.33
2023-02-12T05:16:34.899Z,51.20
2023-02-12T05:19:01.514Z,46.83
2023-02-12T05:21:28.297Z,52.10
2023-02-12T05:23:55.164Z,53.35
2023-02-12T05:26:22.273Z,51.85
2023-02-12T05:28:48.960Z,55.85
2023-02-12T05:31:21.041Z,50.00
2023-02-12T05:33:48.679Z,51.42
2023-02-12T05:36:18.374Z,48.65
2023-02-12T05:38:45.229Z,48.15
2023-02-12T05:41:14.236Z,52.03
2023-02-12T05:43:41.256Z,53.10
2023-02-12T05:46:09.343Z,53.05
2023-02-12T05:48:36.737Z,52.50
2023-02-12T05:51:04.581Z,49.80
2023-02-12T05:53:31.573Z,49.20
2023-02-12T05:56:17.099Z,46.88
2023-02-12T05:58:46.697Z,44.38
2023-02-12T06:01:16.502Z,44.85
2023-02-12T06:03:43.595Z,45.58
2023-02-12T06:06:10.876Z,45.75
2023-02-12T06:08:37.777Z,41.38
2023-02-12T06:11:07.175Z,43.38
2023-02-12T06:13:34.729Z,43.38
2023-02-12T06:16:01.466Z,47.17
2023-02-12T06:18:28.508Z,47.00
2023-02-12T06:20:55.166Z,44.58
2023-02-12T06:23:22.625Z,42.88
2023-02-12T06:25:50.315Z,45.95
2023-02-12T06:28:17.370Z,48.63
2023-02-12T06:30:44.103Z,42.38
2023-02-12T06:33:10.750Z,45.08
2023-02-12T06:35:37.647Z,45.00
2023-02-12T06:38:04.947Z,41.90
2023-02-12T06:40:32.089Z,42.78
2023-02-12T06:42:58.722Z,45.58
2023-02-12T06:45:25.457Z,49.60
2023-02-12T06:47:52.158Z,50.80
2023-02-12T06:50:19.190Z,50.25
2023-02-12T06:52:45.798Z,48.70
2023-02-12T06:55:12.394Z,42.17
2023-02-12T06:57:39.172Z,40.90
2023-02-12T07:00:06.420Z,45.03
2023-02-12T07:02:33.014Z,40.55
2023-02-12T07:04:59.584Z,40.58
2023-02-12T07:07:26.152Z,49.08
2023-02-12T07:09:52.724Z,47.67
2023-02-12T07:12:19.339Z,49.67
2023-02-12T07:14:45.917Z,47.92
2023-02-12T07:17:12.483Z,49.15
2023-02-12T07:19:39.189Z,52.88
2023-02-12T07:22:05.936Z,49.50
2023-02-12T07:24:32.555Z,54.88
2023-02-12T07:26:59.104Z,51.30
2023-02-12T07:29:25.678Z,53.67
2023-02-12T07:31:52.406Z,57.20
2023-02-12T07:34:19.152Z,53.13
2023-02-12T07:36:45.741Z,48.50
2023-02-12T07:39:13.070Z,49.95
2023-02-12T07:41:39.715Z,49.50
2023-02-12T07:44:10.266Z,47.38
2023-02-12T07:46:44.091Z,50.58
2023-02-12T07:49:17.298Z,49.08
2023-02-12T07:51:43.937Z,45.88
2023-02-12T07:54:11.667Z,46.03
2023-02-12T07:56:39.339Z,50.25
2023-02-12T07:59:12.305Z,45.80
2023-02-12T08:01:45.602Z,50.63
2023-02-12T08:04:14.064Z,45.05
2023-02-12T08:06:43.333Z,45.83
2023-02-12T08:09:12.308Z,44.55
2023-02-12T08:11:39.573Z,45.53
2023-02-12T08:14:06.375Z,43.90
2023-02-12T08:16:36.641Z,46.75
